sensor_id;sensor_type;location;lat;lon;timestamp;P1;durP1;ratioP1;P2;durP2;ratioP2
40154;SDS011;25875;48.202;16.334;2022-07-29T00:01:53;6.47;;;4.28;;
40154;SDS011;25875;48.202;16.334;2022-07-29T00:04:20;5.35;;;4.32;;
40154;SDS011;25875;48.202;16.334;2022-07-29T00:06:49;6.32;;;4.28;;
40154;SDS011;25875;48.202;16.334;2022-07-29T00:09:16;6.30;;;4.43;;
40154;SDS011;25875;48.202;16.334;2022-07-29T00:11:43;9.15;;;4.63;;
40154;SDS011;25875;48.202;16.334;2022-07-29T00:14:10;8.73;;;5.70;;
40154;SDS011;25875;48.202;16.334;2022-07-29T00:16:38;13.77;;;11.88;;
40154;SDS011;25875;48.202;16.334;2022-07-29T00:19:05;8.48;;;6.40;;
40154;SDS011;25875;48.202;16.334;2022-07-29T00:21:32;6.82;;;4.95;;
40154;SDS011;25875;48.202;16.334;2022-07-29T00:24:01;6.40;;;5.80;;
40154;SDS011;25875;48.202;16.334;2022-07-29T00:26:28;6.97;;;5.00;;
40154;SDS011;25875;48.202;16.334;2022-07-29T00:28:57;4.55;;;3.78;;
40154;SDS011;25875;48.202;16.334;2022-07-29T00:31:25;9.48;;;4.28;;
40154;SDS011;25875;48.202;16.334;2022-07-29T00:33:52;5.88;;;3.90;;
40154;SDS011;25875;48.202;16.334;2022-07-29T00:36:20;9.60;;;4.13;;
40154;SDS011;25875;48.202;16.334;2022-07-29T00:38:46;6.53;;;3.70;;
40154;SDS011;25875;48.202;16.334;2022-07-29T00:41:18;8.23;;;3.92;;
40154;SDS011;25875;48.202;16.334;2022-07-29T00:43:45;5.43;;;4.30;;
40154;SDS011;25875;48.202;16.334;2022-07-29T00:46:13;5.35;;;4.00;;
40154;SDS011;25875;48.202;16.334;2022-07-29T00:48:40;7.90;;;4.07;;
40154;SDS011;25875;48.202;16.334;2022-07-29T00:51:07;11.63;;;7.55;;
40154;SDS011;25875;48.202;16.334;2022-07-29T00:53:35;10.88;;;8.85;;
40154;SDS011;25875;48.202;16.334;2022-07-29T00:56:03;11.23;;;7.97;;
40154;SDS011;25875;48.202;16.334;2022-07-29T00:58:32;8.10;;;5.65;;
40154;SDS011;25875;48.202;16.334;2022-07-29T01:00:59;8.02;;;4.28;;
40154;SDS011;25875;48.202;16.334;2022-07-29T01:03:26;4.57;;;3.85;;
40154;SDS011;25875;48.202;16.334;2022-07-29T01:05:53;4.70;;;4.00;;
40154;SDS011;25875;48.202;16.334;2022-07-29T01:08:21;5.75;;;4.47;;
40154;SDS011;25875;48.202;16.334;2022-07-29T01:10:49;9.00;;;5.40;;
40154;SDS011;25875;48.202;16.334;2022-07-29T01:13:18;9.15;;;7.25;;
40154;SDS011;25875;48.202;16.334;2022-07-29T01:15:49;7.50;;;6.70;;
40154;SDS011;25875;48.202;16.334;2022-07-29T01:18:22;7.20;;;5.93;;
40154;SDS011;25875;48.202;16.334;2022-07-29T01:21:09;6.47;;;5.00;;
40154;SDS011;25875;48.202;16.334;2022-07-29T01:23:53;7.45;;;4.43;;
40154;SDS011;25875;48.202;16.334;2022-07-29T01:26:35;5.53;;;3.90;;
40154;SDS011;25875;48.202;16.334;2022-07-29T01:29:12;5.57;;;3.63;;
40154;SDS011;25875;48.202;16.334;2022-07-29T01:31:47;5.50;;;4.35;;
40154;SDS011;25875;48.202;16.334;2022-07-29T01:34:23;5.13;;;3.75;;
40154;SDS011;25875;48.202;16.334;2022-07-29T01:36:57;5.32;;;3.85;;
40154;SDS011;25875;48.202;16.334;2022-07-29T18:50:07;9.45;;;8.43;;
40154;SDS011;25875;48.202;16.334;2022-07-29T18:52:36;9.70;;;8.70;;
40154;SDS011;25875;48.202;16.334;2022-07-29T18:55:03;10.25;;;9.20;;
40154;SDS011;25875;48.202;16.334;2022-07-29T18:57:32;10.75;;;9.52;;
40154;SDS011;25875;48.202;16.334;2022-07-29T18:59:59;10.50;;;7.88;;
40154;SDS011;25875;48.202;16.334;2022-07-29T19:02:26;10.40;;;8.38;;
40154;SDS011;25875;48.202;16.334;2022-07-29T19:04:54;8.82;;;7.90;;
40154;SDS011;25875;48.202;16.334;2022-07-29T19:07:23;9.52;;;8.60;;
40154;SDS011;25875;48.202;16.334;2022-07-29T19:09:51;9.15;;;8.25;;
40154;SDS011;25875;48.202;16.334;2022-07-29T19:12:19;10.13;;;8.82;;
40154;SDS011;25875;48.202;16.334;2022-07-29T19:14:46;9.48;;;8.57;;
40154;SDS011;25875;48.202;16.334;2022-07-29T19:17:15;9.02;;;8.23;;
40154;SDS011;25875;48.202;16.334;2022-07-29T19:19:42;9.02;;;8.15;;
40154;SDS011;25875;48.202;16.334;2022-07-29T19:22:10;8.57;;;7.68;;
40154;SDS011;25875;48.202;16.334;2022-07-29T19:24:40;9.00;;;8.10;;
40154;SDS011;25875;48.202;16.334;2022-07-29T19:27:07;8.43;;;7.63;;
40154;SDS011;25875;48.202;16.334;2022-07-29T19:29:36;10.65;;;8.50;;
40154;SDS011;25875;48.202;16.334;2022-07-29T19:32:03;8.70;;;7.82;;
40154;SDS011;25875;48.202;16.334;2022-07-29T19:34:31;9.85;;;7.75;;
40154;SDS011;25875;48.202;16.334;2022-07-29T19:36:58;9.25;;;8.35;;
40154;SDS011;25875;48.202;16.334;2022-07-29T19:39:26;10.23;;;9.15;;
40154;SDS011;25875;48.202;16.334;2022-07-29T19:41:55;9.35;;;7.93;;
40154;SDS011;25875;48.202;16.334;2022-07-29T19:44:22;8.27;;;7.38;;
40154;SDS011;25875;48.202;16.334;2022-07-29T19:46:49;7.65;;;6.90;;
40154;SDS011;25875;48.202;16.334;2022-07-29T19:49:16;7.75;;;7.00;;
40154;SDS011;25875;48.202;16.334;2022-07-29T19:51:43;9.38;;;7.55;;
40154;SDS011;25875;48.202;16.334;2022-07-29T19:54:11;7.47;;;6.68;;
40154;SDS011;25875;48.202;16.334;2022-07-29T19:56:40;7.38;;;6.63;;
40154;SDS011;25875;48.202;16.334;2022-07-29T19:59:10;8.93;;;8.07;;
40154;SDS011;25875;48.202;16.334;2022-07-29T20:01:38;9.13;;;8.25;;
40154;SDS011;25875;48.202;16.334;2022-07-29T20:04:05;8.80;;;7.65;;
40154;SDS011;25875;48.202;16.334;2022-07-29T20:06:32;8.90;;;7.60;;
40154;SDS011;25875;48.202;16.334;2022-07-29T20:09:00;9.63;;;8.23;;
40154;SDS011;25875;48.202;16.334;2022-07-29T20:11:28;9.15;;;8.15;;
40154;SDS011;25875;48.202;16.334;2022-07-29T20:13:56;9.77;;;8.77;;
40154;SDS011;25875;48.202;16.334;2022-07-29T20:16:25;8.57;;;7.78;;
40154;SDS011;25875;48.202;16.334;2022-07-29T20:18:52;8.98;;;8.07;;
40154;SDS011;25875;48.202;16.334;2022-07-29T20:21:20;8.65;;;7.85;;
40154;SDS011;25875;48.202;16.334;2022-07-29T20:23:47;8.32;;;7.53;;
40154;SDS011;25875;48.202;16.334;2022-07-29T20:26:14;10.38;;;9.38;;
40154;SDS011;25875;48.202;16.334;2022-07-29T20:28:41;10.25;;;9.15;;
40154;SDS011;25875;48.202;16.334;2022-07-29T20:31:08;8.82;;;7.93;;
40154;SDS011;25875;48.202;16.334;2022-07-29T20:33:37;8.25;;;7.47;;
40154;SDS011;25875;48.202;16.334;2022-07-29T20:36:05;8.35;;;7.20;;
40154;SDS011;25875;48.202;16.334;2022-07-29T20:38:32;7.32;;;6.63;;
40154;SDS011;25875;48.202;16.334;2022-07-29T20:40:59;7.32;;;6.63;;
40154;SDS011;25875;48.202;16.334;2022-07-29T20:43:26;9.10;;;7.22;;
40154;SDS011;25875;48.202;16.334;2022-07-29T20:45:54;7.88;;;7.18;;
40154;SDS011;25875;48.202;16.334;2022-07-29T20:48:21;8.15;;;7.35;;
40154;SDS011;25875;48.202;16.334;2022-07-29T20:50:50;9.32;;;7.13;;
40154;SDS011;25875;48.202;16.334;2022-07-29T20:53:17;8.48;;;7.68;;
40154;SDS011;25875;48.202;16.334;2022-07-29T20:55:45;8.10;;;7.30;;
40154;SDS011;25875;48.202;16.334;2022-07-29T20:58:12;8.50;;;7.68;;
40154;SDS011;25875;48.202;16.334;2022-07-29T21:00:39;7.72;;;7.03;;
40154;SDS011;25875;48.202;16.334;2022-07-29T21:03:07;7.72;;;6.90;;
40154;SDS011;25875;48.202;16.334;2022-07-29T21:05:35;9.23;;;8.32;;
40154;SDS011;25875;48.202;16.334;2022-07-29T21:08:04;8.65;;;7.80;;
40154;SDS011;25875;48.202;16.334;2022-07-29T21:10:31;8.48;;;7.60;;
40154;SDS011;25875;48.202;16.334;2022-07-29T21:13:01;8.45;;;7.30;;
40154;SDS011;25875;48.202;16.334;2022-07-29T21:15:28;7.15;;;6.53;;
40154;SDS011;25875;48.202;16.334;2022-07-29T21:17:57;8.68;;;7.03;;
40154;SDS011;25875;48.202;16.334;2022-07-29T21:20:27;7.95;;;7.25;;
40154;SDS011;25875;48.202;16.334;2022-07-29T21:22:55;8.38;;;7.57;;
40154;SDS011;25875;48.202;16.334;2022-07-29T21:25:24;8.73;;;7.82;;
40154;SDS011;25875;48.202;16.334;2022-07-29T21:27:51;8.52;;;7.68;;
40154;SDS011;25875;48.202;16.334;2022-07-29T21:30:36;10.43;;;9.05;;
40154;SDS011;25875;48.202;16.334;2022-07-29T21:33:03;10.55;;;9.43;;
40154;SDS011;25875;48.202;16.334;2022-07-29T21:35:31;12.55;;;11.38;;
40154;SDS011;25875;48.202;16.334;2022-07-29T21:37:58;12.05;;;10.95;;
40154;SDS011;25875;48.202;16.334;2022-07-29T21:40:26;17.35;;;15.60;;
40154;SDS011;25875;48.202;16.334;2022-07-29T21:42:54;23.08;;;17.55;;
40154;SDS011;25875;48.202;16.334;2022-07-29T21:45:22;15.35;;;13.80;;
40154;SDS011;25875;48.202;16.334;2022-07-29T21:47:49;12.55;;;11.35;;
40154;SDS011;25875;48.202;16.334;2022-07-29T21:50:17;9.07;;;8.27;;
40154;SDS011;25875;48.202;16.334;2022-07-29T21:52:44;8.80;;;7.82;;
40154;SDS011;25875;48.202;16.334;2022-07-29T21:55:12;8.18;;;7.40;;
40154;SDS011;25875;48.202;16.334;2022-07-29T21:57:41;8.57;;;7.80;;
40154;SDS011;25875;48.202;16.334;2022-07-29T22:00:09;8.55;;;7.30;;
40154;SDS011;25875;48.202;16.334;2022-07-29T22:02:40;8.23;;;7.45;;
40154;SDS011;25875;48.202;16.334;2022-07-29T22:05:08;9.27;;;8.48;;
40154;SDS011;25875;48.202;16.334;2022-07-29T22:07:36;9.13;;;8.23;;
40154;SDS011;25875;48.202;16.334;2022-07-29T22:10:04;8.57;;;7.75;;
40154;SDS011;25875;48.202;16.334;2022-07-29T22:12:32;7.72;;;6.90;;
40154;SDS011;25875;48.202;16.334;2022-07-29T22:15:01;10.35;;;9.25;;
40154;SDS011;25875;48.202;16.334;2022-07-29T22:17:29;10.75;;;9.68;;
40154;SDS011;25875;48.202;16.334;2022-07-29T22:19:56;9.15;;;7.70;;
40154;SDS011;25875;48.202;16.334;2022-07-29T22:22:24;8.48;;;7.68;;
40154;SDS011;25875;48.202;16.334;2022-07-29T22:24:51;7.53;;;6.82;;
40154;SDS011;25875;48.202;16.334;2022-07-29T22:27:18;7.40;;;6.70;;
40154;SDS011;25875;48.202;16.334;2022-07-29T22:29:45;7.13;;;6.43;;
40154;SDS011;25875;48.202;16.334;2022-07-29T22:32:14;8.57;;;7.78;;
40154;SDS011;25875;48.202;16.334;2022-07-29T22:34:41;7.88;;;7.18;;
40154;SDS011;25875;48.202;16.334;2022-07-29T22:37:09;8.23;;;7.43;;
40154;SDS011;25875;48.202;16.334;2022-07-29T22:39:36;13.48;;;12.18;;
40154;SDS011;25875;48.202;16.334;2022-07-29T22:42:03;18.25;;;16.33;;
40154;SDS011;25875;48.202;16.334;2022-07-29T22:44:31;12.98;;;11.68;;
40154;SDS011;25875;48.202;16.334;2022-07-29T22:46:58;12.15;;;11.00;;
40154;SDS011;25875;48.202;16.334;2022-07-29T22:49:27;9.85;;;8.95;;
40154;SDS011;25875;48.202;16.334;2022-07-29T22:51:54;8.15;;;6.95;;
40154;SDS011;25875;48.202;16.334;2022-07-29T22:54:22;7.15;;;6.10;;
40154;SDS011;25875;48.202;16.334;2022-07-29T22:56:49;6.97;;;6.32;;
40154;SDS011;25875;48.202;16.334;2022-07-29T22:59:16;7.13;;;6.43;;
40154;SDS011;25875;48.202;16.334;2022-07-29T23:01:43;6.85;;;6.15;;
40154;SDS011;25875;48.202;16.334;2022-07-29T23:04:11;7.10;;;6.40;;
40154;SDS011;25875;48.202;16.334;2022-07-29T23:06:39;7.28;;;6.40;;
40154;SDS011;25875;48.202;16.334;2022-07-29T23:09:07;7.00;;;6.30;;
40154;SDS011;25875;48.202;16.334;2022-07-29T23:11:34;7.45;;;6.75;;
40154;SDS011;25875;48.202;16.334;2022-07-29T23:14:01;6.38;;;5.78;;
40154;SDS011;25875;48.202;16.334;2022-07-29T23:16:28;8.63;;;7.60;;
40154;SDS011;25875;48.202;16.334;2022-07-29T23:18:56;8.57;;;6.38;;
40154;SDS011;25875;48.202;16.334;2022-07-29T23:21:23;7.00;;;6.05;;
40154;SDS011;25875;48.202;16.334;2022-07-29T23:23:52;7.20;;;6.35;;
40154;SDS011;25875;48.202;16.334;2022-07-29T23:26:19;6.35;;;5.40;;
40154;SDS011;25875;48.202;16.334;2022-07-29T23:28:46;5.90;;;5.30;;
40154;SDS011;25875;48.202;16.334;2022-07-29T23:31:13;6.03;;;5.43;;
40154;SDS011;25875;48.202;16.334;2022-07-29T23:33:41;6.47;;;5.88;;
40154;SDS011;25875;48.202;16.334;2022-07-29T23:36:08;6.25;;;5.65;;
40154;SDS011;25875;48.202;16.334;2022-07-29T23:38:37;5.97;;;5.40;;
40154;SDS011;25875;48.202;16.334;2022-07-29T23:41:06;6.95;;;5.60;;
40154;SDS011;25875;48.202;16.334;2022-07-29T23:43:34;7.72;;;4.90;;
40154;SDS011;25875;48.202;16.334;2022-07-29T23:46:01;7.13;;;5.95;;
40154;SDS011;25875;48.202;16.334;2022-07-29T23:48:29;5.35;;;4.85;;
40154;SDS011;25875;48.202;16.334;2022-07-29T23:50:57;5.95;;;5.28;;
40154;SDS011;25875;48.202;16.334;2022-07-29T23:53:25;8.30;;;4.40;;
40154;SDS011;25875;48.202;16.334;2022-07-29T23:55:53;5.88;;;3.97;;
40154;SDS011;25875;48.202;16.334;2022-07-29T23:58:22;5.15;;;4.65;;
